Time;durP1;ratioP1;P1;durP2;ratioP2;P2;SDS_P1;SDS_P2;PMS_P1;PMS_P2;Temp;Humidity;BMP_temperature;BMP_pressure;BME280_temperature;BME280_humidity;BME280_pressure;Samples;Min_cycle;Max_cycle;Signal;HPM_P1;HPM_P2
2023/07/24 00:02:14;;;;;;;2.63;2.10;;;;;;;17.69;100.00;99822.22;5079440;28;20028;-73
2023/07/24 00:04:40;;;;;;;3.85;2.10;;;;;;;17.61;100.00;99822.72;5085323;28;20016;-73
2023/07/24 00:07:05;;;;;;;5.05;2.10;;;;;;;17.71;100.00;99817.31;5084916;28;20058;-73
2023/07/24 00:09:31;;;;;;;2.17;1.98;;;;;;;17.49;100.00;99808.59;5070303;28;20520;-72
2023/07/24 00:11:57;;;;;;;2.95;2.20;;;;;;;17.51;100.00;99806.41;5090551;28;20024;-72
2023/07/24 00:14:23;;;;;;;3.90;2.00;;;;;;;17.70;100.00;99793.91;5081069;28;20593;-73
2023/07/24 00:16:48;;;;;;;2.78;1.92;;;;;;;17.53;100.00;99790.63;5070988;28;20111;-72
2023/07/24 00:19:14;;;;;;;3.40;2.00;;;;;;;17.59;100.00;99789.56;5086058;28;20143;-72
2023/07/24 00:21:39;;;;;;;1.92;1.73;;;;;;;17.66;100.00;99784.66;5090888;28;20036;-73
2023/07/24 00:24:05;;;;;;;2.20;2.00;;;;;;;17.74;100.00;99775.13;5090277;28;20032;-73
2023/07/24 00:26:30;;;;;;;2.45;1.95;;;;;;;17.63;100.00;99770.78;5074056;28;20120;-73
2023/07/24 00:28:55;;;;;;;3.40;1.67;;;;;;;17.34;100.00;99766.66;5090544;28;20024;-72
2023/07/24 00:31:21;;;;;;;3.47;1.83;;;;;;;17.33;100.00;99754.16;5090356;28;20028;-72
2023/07/24 00:33:46;;;;;;;2.15;1.90;;;;;;;17.51;100.00;99738.41;5091085;28;20478;-72
2023/07/24 00:36:12;;;;;;;2.33;1.92;;;;;;;17.45;100.00;99750.34;5071847;28;20391;-72
2023/07/24 00:38:37;;;;;;;1.85;1.75;;;;;;;17.45;100.00;99734.88;5087281;28;20041;-72
2023/07/24 00:41:02;;;;;;;1.90;1.70;;;;;;;17.50;100.00;99736.78;5086854;28;20766;-72
2023/07/24 00:43:28;;;;;;;3.53;1.77;;;;;;;17.43;100.00;99730.78;5082049;28;20032;-72
2023/07/24 00:45:55;;;;;;;2.65;1.92;;;;;;;17.52;100.00;99738.16;5071769;28;20032;-73
2023/07/24 00:48:21;;;;;;;1.90;1.60;;;;;;;17.52;100.00;99726.44;5070323;28;20109;-73
2023/07/24 00:50:47;;;;;;;2.53;1.60;;;;;;;17.33;100.00;99699.78;5071416;28;20032;-73
2023/07/24 00:53:13;;;;;;;2.33;1.58;;;;;;;17.52;100.00;99719.09;5072156;28;20074;-73
2023/07/24 00:55:40;;;;;;;2.17;1.70;;;;;;;17.74;100.00;99721.53;5070706;28;20252;-73
2023/07/24 00:58:06;;;;;;;2.65;1.77;;;;;;;17.70;100.00;99723.19;5074718;28;20024;-72
2023/07/24 01:00:32;;;;;;;2.30;1.50;;;;;;;17.66;100.00;99722.09;5075184;28;20032;-73
2023/07/24 01:02:59;;;;;;;1.52;1.40;;;;;;;17.65;100.00;99711.47;5070687;28;20082;-73
2023/07/24 01:05:25;;;;;;;3.78;1.25;;;;;;;17.60;100.00;99717.75;5090274;28;20035;-73
2023/07/24 01:07:52;;;;;;;2.38;1.60;;;;;;;17.76;100.00;99704.94;5091364;28;20024;-73
2023/07/24 01:10:17;;;;;;;1.60;1.27;;;;;;;17.70;100.00;99703.31;5090151;28;20035;-72
2023/07/24 01:12:57;;;;;;;1.90;1.30;;;;;;;17.69;100.00;99690.81;5088451;28;20031;-73
2023/07/24 01:15:35;;;;;;;1.30;1.13;;;;;;;17.64;100.00;99682.66;5071677;28;20475;-73
2023/07/24 01:18:08;;;;;;;1.70;1.30;;;;;;;17.57;100.00;99669.31;5071344;28;20090;-72
2023/07/24 01:20:36;;;;;;;2.33;1.33;;;;;;;17.64;100.00;99680.72;5071099;28;20020;-73
2023/07/24 01:23:22;;;;;;;1.65;1.30;;;;;;;17.64;100.00;99667.13;5070311;28;20103;-72
2023/07/24 01:25:59;;;;;;;2.50;1.20;;;;;;;17.48;100.00;99666.34;5082564;28;20081;-72
2023/07/24 01:28:25;;;;;;;2.30;1.15;;;;;;;17.61;100.00;99654.06;5090244;28;20554;-73
2023/07/24 01:30:51;;;;;;;3.20;1.15;;;;;;;17.66;100.00;99658.72;5089248;28;20027;-72
2023/07/24 01:33:17;;;;;;;1.52;1.10;;;;;;;17.78;100.00;99657.38;5071785;28;20553;-72
2023/07/24 01:35:44;;;;;;;1.20;1.10;;;;;;;17.68;100.00;99640.19;5090019;28;20028;-72
2023/07/24 01:38:11;;;;;;;3.40;1.17;;;;;;;17.72;100.00;99673.94;5089419;28;20036;-72
2023/07/24 01:40:38;;;;;;;1.20;1.10;;;;;;;17.83;100.00;99664.69;5105991;28;20459;-72
2023/07/24 01:43:04;;;;;;;2.05;1.20;;;;;;;17.79;100.00;99650.03;5088678;28;20067;-72
2023/07/24 01:45:29;;;;;;;6.72;1.00;;;;;;;17.65;100.00;99651.63;5090389;28;20107;-72
2023/07/24 01:47:55;;;;;;;1.48;1.20;;;;;;;17.69;100.00;99636.41;5090024;28;20068;-72
2023/07/24 01:50:20;;;;;;;2.13;1.05;;;;;;;17.50;100.00;99636.16;5071963;28;20423;-72
2023/07/24 01:52:45;;;;;;;1.55;1.05;;;;;;;17.50;100.00;99622.53;5089196;28;20032;-72
2023/07/24 01:55:11;;;;;;;1.90;1.25;;;;;;;17.59;100.00;99610.03;5089823;28;20571;-72
2023/07/24 01:57:36;;;;;;;1.15;0.88;;;;;;;17.72;100.00;99647.53;5072662;28;20031;-73
2023/07/24 02:00:02;;;;;;;0.90;0.90;;;;;;;17.68;100.00;99627.44;5105712;28;20036;-72
2023/07/24 02:02:27;;;;;;;1.52;0.77;;;;;;;17.40;100.00;99628.00;5090772;28;20036;-72
2023/07/24 02:04:53;;;;;;;1.58;0.90;;;;;;;17.57;100.00;99633.97;5105609;28;20032;-73
2023/07/24 02:07:18;;;;;;;1.05;0.85;;;;;;;17.65;100.00;99624.41;5106374;28;20028;-72
2023/07/24 02:09:44;;;;;;;2.10;0.88;;;;;;;17.76;100.00;99621.44;5088859;28;20020;-72
2023/07/24 02:12:10;;;;;;;1.05;0.82;;;;;;;17.50;100.00;99622.53;5071977;28;20499;-72
2023/07/24 02:14:36;;;;;;;1.05;0.90;;;;;;;17.77;100.00;99617.63;5089058;28;20032;-72
2023/07/24 02:17:02;;;;;;;1.38;0.70;;;;;;;17.89;100.00;99617.34;5105407;28;20036;-72
2023/07/24 02:19:27;;;;;;;0.90;0.65;;;;;;;17.94;100.00;99602.88;5089191;28;20093;-72
2023/07/24 02:21:52;;;;;;;2.45;1.40;;;;;;;17.95;100.00;99608.06;5105699;28;20465;-72
2023/07/24 02:24:18;;;;;;;0.80;0.50;;;;;;;17.86;100.00;99617.06;5089162;28;20035;-72
2023/07/24 02:26:43;;;;;;;1.20;0.70;;;;;;;17.87;100.00;99611.34;5088808;28;20031;-72
2023/07/24 02:29:08;;;;;;;1.50;0.60;;;;;;;17.88;100.00;99615.72;5090040;28;20104;-72
2023/07/24 02:31:34;;;;;;;2.35;0.80;;;;;;;17.92;100.00;99603.19;5089777;28;20502;-72
2023/07/24 02:33:59;;;;;;;0.68;0.68;;;;;;;18.04;100.00;99605.56;5071830;28;20386;-72
2023/07/24 02:36:25;;;;;;;1.33;0.70;;;;;;;18.11;100.00;99595.19;5088742;28;20039;-72
2023/07/24 02:38:51;;;;;;;1.35;0.70;;;;;;;18.17;100.00;99599.53;5109523;28;20031;-72
2023/07/24 02:41:16;;;;;;;2.42;0.85;;;;;;;18.20;100.00;99595.44;5092308;28;20043;-72
2023/07/24 02:43:41;;;;;;;2.38;0.70;;;;;;;18.24;100.00;99594.59;5092786;28;20046;-72
2023/07/24 02:46:07;;;;;;;1.40;0.80;;;;;;;18.19;100.00;99591.09;5093529;28;20048;-72
2023/07/24 02:48:33;;;;;;;1.67;0.70;;;;;;;18.05;100.00;99594.44;5109149;28;20063;-72
2023/07/24 02:50:58;;;;;;;0.68;0.63;;;;;;;18.06;100.00;99587.88;5092154;28;20033;-72
2023/07/24 02:53:24;;;;;;;2.72;0.80;;;;;;;17.75;100.00;99592.59;5082329;28;20042;-72
2023/07/24 02:55:50;;;;;;;1.73;0.70;;;;;;;17.94;100.00;99587.38;5090038;28;20028;-72
2023/07/24 02:58:15;;;;;;;2.05;0.70;;;;;;;18.02;100.00;99580.56;5092876;28;20403;-72
2023/07/24 03:00:41;;;;;;;1.35;0.60;;;;;;;17.92;100.00;99575.97;5076167;28;20541;-72
2023/07/24 03:03:06;;;;;;;0.60;0.60;;;;;;;17.97;100.00;99583.28;5072194;28;20430;-72
2023/07/24 03:05:34;;;;;;;3.00;0.70;;;;;;;18.02;100.00;99569.66;5055397;28;20025;-72
2023/07/24 03:07:59;;;;;;;0.95;0.60;;;;;;;17.68;100.00;99540.38;5088591;28;20021;-72
2023/07/24 03:10:25;;;;;;;0.95;0.50;;;;;;;17.95;100.00;99580.03;5089118;28;20038;-72
2023/07/24 03:12:51;;;;;;;0.90;0.60;;;;;;;17.89;100.00;99554.75;5093533;28;20032;-72
2023/07/24 03:15:16;;;;;;;1.20;0.50;;;;;;;17.99;100.00;99556.63;5092921;28;20024;-72
2023/07/24 03:17:41;;;;;;;2.17;0.70;;;;;;;18.06;100.00;99563.38;5093231;28;20036;-72
2023/07/24 03:20:15;;;;;;;1.63;0.60;;;;;;;18.18;100.00;99557.63;5080700;28;20063;-72
2023/07/24 03:22:42;;;;;;;2.47;0.50;;;;;;;18.19;100.00;99561.97;5071559;28;20024;-72
2023/07/24 03:25:09;;;;;;;1.55;0.63;;;;;;;18.17;100.00;99557.88;5071103;28;20044;-72
2023/07/24 03:27:34;;;;;;;1.33;0.60;;;;;;;18.04;100.00;99548.41;5072697;28;20095;-72
2023/07/24 03:30:00;;;;;;;0.60;0.50;;;;;;;18.13;100.00;99559.53;5072822;28;20478;-72
2023/07/24 03:32:25;;;;;;;0.60;0.60;;;;;;;18.11;100.00;99559.81;5077823;28;20119;-72
2023/07/24 03:34:51;;;;;;;1.13;0.70;;;;;;;17.99;100.00;99553.91;5091607;28;20032;-72
2023/07/24 03:37:17;;;;;;;1.45;0.60;;;;;;;17.86;100.00;99554.50;5083600;28;20063;-72
2023/07/24 03:39:42;;;;;;;0.70;0.60;;;;;;;18.06;100.00;99557.13;5071338;28;20501;-72
2023/07/24 03:42:14;;;;;;;2.70;0.50;;;;;;;17.70;100.00;99551.78;5070577;28;20028;-72
2023/07/24 03:44:40;;;;;;;0.68;0.60;;;;;;;17.69;100.00;99557.50;5072078;28;20028;-72
2023/07/24 03:47:06;;;;;;;1.27;0.60;;;;;;;17.88;100.00;99550.41;5083416;28;20030;-72
2023/07/24 03:49:31;;;;;;;0.88;0.60;;;;;;;17.99;100.00;99551.16;5091288;28;20048;-73
2023/07/24 03:51:56;;;;;;;1.08;0.60;;;;;;;17.85;100.00;99550.97;5090161;28;20126;-72
2023/07/24 03:54:22;;;;;;;0.68;0.63;;;;;;;17.65;100.00;99549.09;5073057;28;20516;-72
2023/07/24 03:56:47;;;;;;;1.40;0.70;;;;;;;17.87;100.00;99543.31;5071933;28;20438;-72
2023/07/24 03:59:13;;;;;;;1.65;0.80;;;;;;;17.95;100.00;99547.38;5071669;28;20036;-72
2023/07/24 04:01:38;;;;;;;0.80;0.80;;;;;;;17.97;100.00;99537.81;5038282;28;20487;-72
2023/07/24 04:04:04;;;;;;;2.30;0.90;;;;;;;17.99;100.00;99545.72;5071466;28;20111;-72
2023/07/24 04:06:29;;;;;;;1.40;0.82;;;;;;;18.10;100.00;99539.13;5054952;28;20115;-72
2023/07/24 04:08:54;;;;;;;1.13;0.88;;;;;;;18.07;100.00;99537.78;5071549;28;20467;-72
2023/07/24 04:11:22;;;;;;;1.90;0.98;;;;;;;18.20;100.00;99533.63;5071938;28;20033;-72
2023/07/24 04:13:47;;;;;;;1.23;0.85;;;;;;;18.23;100.00;99537.72;5054812;28;20032;-72
2023/07/24 04:16:13;;;;;;;2.13;1.10;;;;;;;18.35;100.00;99535.47;5072378;28;20028;-72
2023/07/24 04:18:38;;;;;;;1.60;1.10;;;;;;;18.50;100.00;99531.81;5064266;28;20116;-72
2023/07/24 04:21:03;;;;;;;1.90;1.38;;;;;;;18.59;100.00;99530.13;5054836;28;20650;-72
2023/07/24 04:23:47;;;;;;;4.30;1.48;;;;;;;18.58;100.00;99525.78;5071548;28;20032;-72
2023/07/24 04:26:13;;;;;;;4.10;1.85;;;;;;;18.58;100.00;99523.06;5071548;28;20075;-72
2023/07/24 04:28:38;;;;;;;1.95;1.73;;;;;;;18.48;100.00;99520.41;5054647;28;20486;-72
2023/07/24 04:31:04;;;;;;;4.88;2.30;;;;;;;18.60;100.00;99520.84;5070688;28;20032;-72
2023/07/24 04:33:29;;;;;;;7.72;2.60;;;;;;;18.63;100.00;99514.03;5070491;28;20462;-72
2023/07/24 04:35:55;;;;;;;7.85;2.92;;;;;;;18.70;100.00;99514.53;5078087;28;20123;-72
2023/07/24 04:38:21;;;;;;;9.52;3.30;;;;;;;18.75;100.00;99511.78;5092230;28;20035;-72
2023/07/24 04:40:46;;;;;;;8.60;3.40;;;;;;;18.86;100.00;99507.06;5085443;28;20487;-72
2023/07/24 04:43:12;;;;;;;10.52;3.72;;;;;;;18.87;100.00;99501.31;5070256;28;20214;-72
2023/07/24 04:45:38;;;;;;;10.70;4.30;;;;;;;18.85;100.00;99494.56;5073029;28;20021;-72
2023/07/24 04:48:04;;;;;;;12.20;4.50;;;;;;;18.97;100.00;99481.34;5086064;28;20044;-73
2023/07/24 04:50:29;;;;;;;11.25;4.47;;;;;;;19.02;100.00;99489.47;5114451;28;20028;-73
2023/07/24 04:52:55;;;;;;;15.00;4.78;;;;;;;19.12;100.00;99489.38;5078974;28;20430;-72
2023/07/24 04:55:21;;;;;;;10.15;4.95;;;;;;;19.14;100.00;99483.63;5092176;28;20020;-72
2023/07/24 04:57:47;;;;;;;14.35;5.03;;;;;;;19.20;100.00;99479.75;5090215;28;20402;-72
2023/07/24 05:00:12;;;;;;;16.70;4.93;;;;;;;19.31;100.00;99480.47;5089239;28;20020;-72
2023/07/24 05:02:39;;;;;;;12.85;5.18;;;;;;;19.33;100.00;99478.25;5089895;28;20046;-72
2023/07/24 05:05:07;;;;;;;12.30;4.97;;;;;;;19.37;100.00;99474.69;5090979;28;20410;-72
2023/07/24 05:07:32;;;;;;;19.27;5.72;;;;;;;19.35;100.00;99470.59;5089614;28;20506;-72
2023/07/24 05:09:58;;;;;;;12.40;5.30;;;;;;;19.44;100.00;99474.34;5089837;28;20071;-72
2023/07/24 05:12:24;;;;;;;17.05;6.50;;;;;;;19.52;100.00;99467.41;5089408;28;20238;-72
2023/07/24 05:14:49;;;;;;;13.13;6.45;;;;;;;19.33;100.00;99438.16;5091156;28;20024;-72
2023/07/24 05:17:15;;;;;;;17.80;6.68;;;;;;;19.58;100.00;99466.25;5091089;28;20114;-72
2023/07/24 05:19:40;;;;;;;21.05;8.00;;;;;;;19.59;100.00;99465.94;5074459;28;20540;-72
2023/07/24 05:22:05;;;;;;;23.20;10.43;;;;;;;19.70;100.00;99462.03;5052981;28;20035;-73
2023/07/24 05:24:31;;;;;;;32.85;12.88;;;;;;;19.81;100.00;99465.44;5053758;28;20040;-73
2023/07/24 05:26:56;;;;;;;29.83;14.10;;;;;;;19.86;100.00;99440.78;5054216;28;20040;-73
2023/07/24 05:29:22;;;;;;;30.75;14.23;;;;;;;20.04;100.00;99455.56;5047348;28;20077;-72
2023/07/24 05:31:47;;;;;;;37.05;14.25;;;;;;;20.14;100.00;99460.88;5089373;28;20032;-73
2023/07/24 05:34:13;;;;;;;35.30;15.23;;;;;;;20.16;100.00;99458.69;5078093;28;20112;-72
2023/07/24 05:36:40;;;;;;;35.65;15.38;;;;;;;20.09;100.00;99436.38;5073674;28;20074;-72
2023/07/24 05:39:05;;;;;;;36.67;15.60;;;;;;;20.26;100.00;99460.44;5091120;28;20028;-73
2023/07/24 05:41:49;;;;;;;33.80;16.08;;;;;;;20.36;100.00;99451.28;5091648;28;20031;-72
2023/07/24 05:44:15;;;;;;;38.65;16.45;;;;;;;20.42;100.00;99450.88;5090293;28;20020;-72
2023/07/24 05:46:40;;;;;;;32.70;15.95;;;;;;;20.51;100.00;99448.34;5107319;28;20032;-72
2023/07/24 05:49:06;;;;;;;31.80;15.77;;;;;;;20.52;100.00;99444.47;5104944;28;20055;-72
2023/07/24 05:51:31;;;;;;;33.78;14.27;;;;;;;20.51;100.00;99442.88;5076864;28;20419;-73
2023/07/24 05:53:56;;;;;;;26.67;14.90;;;;;;;20.51;100.00;99448.34;5084932;28;20024;-72
2023/07/24 05:56:22;;;;;;;28.17;13.23;;;;;;;20.46;100.00;99433.91;5090228;28;20040;-72
2023/07/24 05:58:47;;;;;;;34.42;13.48;;;;;;;20.61;100.00;99444.63;5089103;28;20115;-72
2023/07/24 06:01:12;;;;;;;30.63;13.55;;;;;;;20.63;100.00;99445.16;5080288;28;20044;-72
2023/07/24 06:03:38;;;;;;;31.65;13.40;;;;;;;20.64;100.00;99428.44;5058404;28;20036;-73
2023/07/24 06:06:04;;;;;;;31.90;14.05;;;;;;;20.61;100.00;99437.22;5089352;28;20036;-72
2023/07/24 06:08:30;;;;;;;33.78;13.57;;;;;;;20.55;100.00;99418.50;5072946;28;20024;-72
2023/07/24 06:10:56;;;;;;;35.38;12.52;;;;;;;20.57;100.00;99429.94;5089459;28;20032;-72
2023/07/24 06:13:21;;;;;;;31.95;12.63;;;;;;;20.62;100.00;99422.44;5093203;28;20591;-73
2023/07/24 06:15:48;;;;;;;34.05;12.52;;;;;;;20.65;100.00;99427.31;5092405;28;20039;-73
2023/07/24 06:18:13;;;;;;;34.25;13.38;;;;;;;20.56;100.00;99415.47;5076828;28;20107;-73
2023/07/24 06:20:39;;;;;;;25.85;12.23;;;;;;;20.64;100.00;99422.97;5093555;28;20111;-72
2023/07/24 06:23:04;;;;;;;26.02;12.75;;;;;;;20.57;100.00;99421.75;5094617;28;20032;-72
2023/07/24 06:25:31;;;;;;;26.38;12.00;;;;;;;20.60;100.00;99419.22;5093397;28;20370;-72
2023/07/24 06:27:57;;;;;;;29.27;13.52;;;;;;;20.54;100.00;99414.94;5094734;28;20034;-72
2023/07/24 06:30:23;;;;;;;33.58;13.13;;;;;;;20.70;100.00;99422.91;5093487;28;20091;-72
2023/07/24 06:32:48;;;;;;;21.02;10.35;;;;;;;20.71;100.00;99419.03;5094710;28;20023;-72
2023/07/24 06:35:13;;;;;;;22.88;10.02;;;;;;;20.75;100.00;99426.34;5098277;28;20036;-72
2023/07/24 06:37:39;;;;;;;22.58;9.27;;;;;;;20.69;100.00;99410.31;5097253;28;20447;-72
2023/07/24 06:40:07;;;;;;;23.98;9.65;;;;;;;20.84;100.00;99412.78;5084441;28;20043;-72
2023/07/24 06:42:32;;;;;;;26.50;9.43;;;;;;;20.91;100.00;99417.88;5075886;28;20028;-72
2023/07/24 06:44:57;;;;;;;23.10;8.95;;;;;;;20.96;100.00;99417.75;5072376;28;20569;-71
2023/07/24 06:47:23;;;;;;;25.25;9.35;;;;;;;21.10;100.00;99405.72;5055423;28;20063;-72
2023/07/24 06:49:48;;;;;;;26.65;8.95;;;;;;;21.29;100.00;99413.00;5055130;28;20034;-72
2023/07/24 06:52:14;;;;;;;25.65;9.02;;;;;;;21.44;100.00;99414.69;5072483;28;20441;-72
2023/07/24 06:54:39;;;;;;;30.50;8.93;;;;;;;21.62;100.00;99404.72;5072323;28;20038;-72
2023/07/24 06:57:05;;;;;;;26.02;8.68;;;;;;;21.76;100.00;99400.03;5056010;28;20037;-72
2023/07/24 06:59:30;;;;;;;32.53;8.73;;;;;;;21.80;100.00;99395.56;5072199;28;20445;-73
2023/07/24 07:01:56;;;;;;;27.02;9.13;;;;;;;21.73;100.00;99396.00;5074245;28;20036;-72
2023/07/24 07:04:21;;;;;;;31.50;10.00;;;;;;;21.78;100.00;99392.31;5073238;28;20063;-72
2023/07/24 07:06:46;;;;;;;28.70;9.40;;;;;;;21.76;100.00;99384.41;5073388;28;20039;-73
2023/07/24 07:09:12;;;;;;;27.48;9.43;;;;;;;21.78;100.00;99373.16;5066157;28;20383;-72
2023/07/24 07:11:38;;;;;;;31.23;9.70;;;;;;;21.90;100.00;99389.06;5073688;28;20404;-73
2023/07/24 07:14:08;;;;;;;20.27;9.05;;;;;;;21.85;100.00;99384.47;5055775;28;20032;-73
2023/07/24 07:16:34;;;;;;;17.33;8.00;;;;;;;21.89;100.00;99388.25;5071874;28;20036;-73
2023/07/24 07:18:59;;;;;;;20.63;8.82;;;;;;;21.96;100.00;99385.09;5072337;28;20032;-73
2023/07/24 07:21:24;;;;;;;18.27;8.23;;;;;;;22.00;100.00;99384.13;5061693;28;20051;-73
2023/07/24 07:23:50;;;;;;;19.38;8.52;;;;;;;22.01;100.00;99383.00;5072276;28;20463;-73
2023/07/24 07:26:15;;;;;;;17.98;8.13;;;;;;;22.12;100.00;99385.50;5054349;28;20077;-73
2023/07/24 07:28:41;;;;;;;19.73;8.07;;;;;;;22.19;100.00;99384.00;5057267;28;20494;-73
2023/07/24 07:31:06;;;;;;;20.45;7.60;;;;;;;22.30;100.00;99381.00;5074282;28;20039;-74
2023/07/24 07:33:32;;;;;;;15.85;7.80;;;;;;;22.25;100.00;99373.72;5072747;28;20040;-73
2023/07/24 07:35:57;;;;;;;13.10;6.90;;;;;;;22.45;100.00;99383.34;5073019;28;20050;-72
2023/07/24 07:38:22;;;;;;;18.27;7.00;;;;;;;22.61;100.00;99367.34;5071608;28;20036;-73
2023/07/24 07:40:48;;;;;;;13.13;6.50;;;;;;;23.05;100.00;99384.84;5071522;28;20040;-72
2023/07/24 07:43:13;;;;;;;19.58;6.88;;;;;;;22.89;100.00;99368.78;5070270;28;20074;-72
2023/07/24 07:45:39;;;;;;;15.07;6.72;;;;;;;22.84;100.00;99368.09;5070731;28;20029;-73
2023/07/24 07:48:05;;;;;;;15.63;6.45;;;;;;;23.07;100.00;99380.66;5070882;28;20051;-73
2023/07/24 07:50:30;;;;;;;15.88;6.38;;;;;;;23.20;100.00;99384.41;5071967;28;20017;-73
2023/07/24 07:52:56;;;;;;;14.10;6.38;;;;;;;23.27;100.00;99371.03;5070103;28;20089;-73
2023/07/24 07:55:21;;;;;;;20.13;6.25;;;;;;;23.25;100.00;99378.78;5052935;28;20031;-73
2023/07/24 07:57:47;;;;;;;14.38;5.85;;;;;;;23.05;100.00;99357.41;5071694;28;20089;-73
2023/07/24 08:00:13;;;;;;;13.02;5.72;;;;;;;22.84;100.00;99352.44;5072532;28;20032;-73
2023/07/24 08:02:41;;;;;;;11.85;6.30;;;;;;;22.84;100.00;99368.91;5072155;28;20519;-73
2023/07/24 08:05:11;;;;;;;19.17;6.47;;;;;;;22.79;100.00;99368.25;5076925;28;20587;-73
2023/07/24 08:07:36;;;;;;;15.00;5.90;;;;;;;22.74;100.00;99359.00;5072519;28;20131;-73
2023/07/24 08:10:03;;;;;;;17.58;6.82;;;;;;;22.58;100.00;99360.53;5071064;28;20178;-73
2023/07/24 08:12:28;;;;;;;17.23;5.75;;;;;;;22.34;100.00;99349.13;5060286;28;20033;-73
2023/07/24 08:14:54;;;;;;;9.68;4.05;;;;;;;22.31;100.00;99360.69;5060964;28;20099;-73
2023/07/24 08:17:19;;;;;;;11.27;3.83;;;;;;;22.24;100.00;99359.22;5062877;28;20039;-73
2023/07/24 08:19:45;;;;;;;11.10;3.67;;;;;;;22.25;100.00;99357.28;5045598;28;20115;-73
2023/07/24 08:22:10;;;;;;;6.30;3.10;;;;;;;22.24;100.00;99355.66;5078197;28;20027;-73
2023/07/24 08:24:36;;;;;;;5.88;3.05;;;;;;;22.20;100.00;99349.19;5077381;28;20032;-73
2023/07/24 08:27:02;;;;;;;5.30;2.70;;;;;;;22.24;100.00;99361.13;5061219;28;20612;-74
2023/07/24 08:29:27;;;;;;;10.25;3.10;;;;;;;22.15;100.00;99352.00;5091785;28;20028;-73
2023/07/24 08:31:53;;;;;;;6.88;2.47;;;;;;;22.15;100.00;99357.50;5092338;28;20190;-73
2023/07/24 08:34:18;;;;;;;7.20;2.90;;;;;;;22.21;100.00;99359.03;5090738;28;20031;-73
2023/07/24 08:36:43;;;;;;;6.30;2.40;;;;;;;22.23;100.00;99359.53;5092740;28;20119;-73
2023/07/24 08:39:09;;;;;;;6.22;2.28;;;;;;;22.15;100.00;99354.75;5090907;28;20030;-73
2023/07/24 08:41:35;;;;;;;6.50;2.38;;;;;;;21.99;100.00;99343.38;5090753;28;20031;-73
2023/07/24 08:44:01;;;;;;;7.07;2.08;;;;;;;22.11;100.00;99353.75;5107742;28;20031;-73
2023/07/24 08:46:27;;;;;;;5.22;2.05;;;;;;;22.01;100.00;99350.16;5090675;28;20475;-73
2023/07/24 08:48:54;;;;;;;9.68;2.08;;;;;;;21.98;100.00;99344.47;5095689;28;20468;-73
2023/07/24 08:51:22;;;;;;;6.60;1.90;;;;;;;21.97;100.00;99345.59;5091902;28;20509;-72
2023/07/24 08:53:48;;;;;;;3.65;1.80;;;;;;;21.89;100.00;99343.63;5091774;28;20035;-72
2023/07/24 08:56:14;;;;;;;4.57;1.80;;;;;;;21.77;100.00;99333.22;5091870;28;20028;-73
2023/07/24 08:58:40;;;;;;;4.93;1.73;;;;;;;21.76;100.00;99342.53;5091853;28;20047;-73
2023/07/24 09:01:06;;;;;;;4.60;1.70;;;;;;;21.69;100.00;99331.19;5090936;28;20024;-73
2023/07/24 09:03:32;;;;;;;3.95;1.80;;;;;;;21.79;100.00;99340.00;5091377;28;20047;-73
2023/07/24 09:05:58;;;;;;;3.88;1.70;;;;;;;21.83;100.00;99337.44;5094410;28;20081;-73
2023/07/24 09:08:41;;;;;;;4.05;1.52;;;;;;;21.84;100.00;99333.59;5090726;28;20124;-74
2023/07/24 09:11:07;;;;;;;6.05;2.10;;;;;;;21.95;100.00;99334.97;5090708;28;20109;-74
2023/07/24 09:13:41;;;;;;;6.75;1.90;;;;;;;22.10;100.00;99328.31;5093383;28;20038;-73
2023/07/24 09:16:06;;;;;;;5.45;2.10;;;;;;;22.33;100.00;99329.13;5073946;28;20028;-73
2023/07/24 09:18:42;;;;;;;5.97;2.17;;;;;;;22.72;100.00;99328.38;5074172;28;20077;-73
2023/07/24 09:21:09;;;;;;;6.03;1.98;;;;;;;22.96;100.00;99328.00;5056396;28;20106;-73
2023/07/24 09:23:34;;;;;;;6.70;2.47;;;;;;;22.97;100.00;99312.34;5091852;28;20103;-73
2023/07/24 09:26:05;;;;;;;5.05;2.00;;;;;;;23.41;100.00;99313.25;5090302;28;20095;-74
2023/07/24 09:28:30;;;;;;;3.67;1.80;;;;;;;23.75;100.00;99317.22;5091266;28;20024;-75
2023/07/24 09:31:00;;;;;;;4.78;1.52;;;;;;;23.84;100.00;99327.06;5089985;28;20513;-75
2023/07/24 09:33:43;;;;;;;5.60;1.50;;;;;;;23.94;100.00;99323.19;5057396;28;20123;-75
2023/07/24 09:36:09;;;;;;;3.40;1.23;;;;;;;23.87;100.00;99318.19;5089828;28;20502;-75
2023/07/24 09:38:36;;;;;;;3.17;1.25;;;;;;;23.88;100.00;99321.72;5089462;28;20093;-75
2023/07/24 09:41:05;;;;;;;4.25;1.20;;;;;;;23.96;100.00;99320.09;5089506;28;20506;-74
2023/07/24 09:43:31;;;;;;;3.72;1.25;;;;;;;23.85;100.00;99311.38;5091084;28;20043;-75
2023/07/24 09:45:57;;;;;;;4.82;1.38;;;;;;;23.64;100.00;99324.91;5095298;28;20050;-74
2023/07/24 09:48:25;;;;;;;4.97;1.30;;;;;;;23.43;100.00;99320.03;5090251;28;20433;-75
2023/07/24 09:50:56;;;;;;;4.75;1.35;;;;;;;23.43;100.00;99325.53;5089947;28;20455;-74
2023/07/24 09:53:31;;;;;;;3.58;1.23;;;;;;;23.55;100.00;99319.41;5099690;28;20031;-74
2023/07/24 09:56:08;;;;;;;5.90;1.58;;;;;;;23.33;100.00;99268.19;5091440;28;20070;-76
2023/07/24 09:58:38;;;;;;;5.05;1.70;;;;;;;23.54;100.00;99322.47;5090009;28;20032;-74
2023/07/24 10:01:08;;;;;;;7.07;1.58;;;;;;;23.66;100.00;99320.72;5089830;28;20032;-75
2023/07/24 10:03:38;;;;;;;5.18;1.55;;;;;;;23.67;100.00;99324.25;5091266;28;20054;-75
2023/07/24 10:06:04;;;;;;;8.52;1.58;;;;;;;23.85;100.00;99317.69;5093171;28;20060;-74
2023/07/24 10:08:30;;;;;;;9.57;1.70;;;;;;;23.98;100.00;99315.91;5090816;28;20020;-74
2023/07/24 10:10:58;;;;;;;6.30;1.50;;;;;;;24.03;100.00;99315.72;5091558;28;20024;-73
2023/07/24 10:13:26;;;;;;;8.20;1.70;;;;;;;24.04;100.00;99311.03;5090141;28;20047;-74
2023/07/24 10:15:52;;;;;;;5.70;1.30;;;;;;;24.19;100.00;99302.28;5089600;28;20028;-74
2023/07/24 10:18:26;;;;;;;6.35;1.42;;;;;;;24.23;100.00;99308.72;5089774;28;20514;-73
2023/07/24 10:21:01;;;;;;;6.15;1.30;;;;;;;24.39;100.00;99300.78;5091090;28;20035;-73
2023/07/24 10:23:26;;;;;;;5.18;1.20;;;;;;;24.39;100.00;99307.09;5091265;28;20032;-74
2023/07/24 10:25:52;;;;;;;5.75;1.20;;;;;;;24.36;100.00;99310.47;5089469;28;20566;-73
2023/07/24 10:28:18;;;;;;;5.30;1.08;;;;;;;24.36;100.00;99304.19;5090180;28;20115;-73
2023/07/24 10:30:44;;;;;;;4.97;1.00;;;;;;;24.41;100.00;99286.75;5090038;28;20077;-73
2023/07/24 10:33:13;;;;;;;4.93;1.08;;;;;;;24.50;100.00;99301.25;5091404;28;20020;-73
2023/07/24 10:35:41;;;;;;;3.22;1.10;;;;;;;24.46;100.00;99294.81;5091400;28;20024;-73
2023/07/24 10:38:07;;;;;;;6.25;1.33;;;;;;;24.59;100.00;99291.84;5089537;28;20047;-74
2023/07/24 10:40:33;;;;;;;5.18;1.10;;;;;;;24.32;100.00;99262.00;5090251;28;20391;-74
2023/07/24 10:43:18;;;;;;;3.17;1.10;;;;;;;24.49;100.00;99292.22;5073036;28;20027;-74
2023/07/24 10:45:51;;;;;;;6.35;1.27;;;;;;;24.56;100.00;99283.44;5093473;28;20020;-74
2023/07/24 10:48:18;;;;;;;7.38;1.40;;;;;;;24.33;100.00;99282.84;5093710;28;20495;-74
2023/07/24 10:50:46;;;;;;;6.22;1.25;;;;;;;24.23;100.00;99275.75;5089767;28;20106;-74
2023/07/24 10:53:18;;;;;;;6.57;1.50;;;;;;;23.86;100.00;99285.53;5090879;28;20028;-74
2023/07/24 10:55:44;;;;;;;5.75;1.42;;;;;;;23.65;100.00;99274.38;5089442;28;20024;-74
2023/07/24 10:58:11;;;;;;;7.45;1.60;;;;;;;23.65;100.00;99291.66;5073697;28;20427;-74
2023/07/24 11:00:38;;;;;;;4.00;1.38;;;;;;;23.45;100.00;99268.38;5093175;28;20035;-74
2023/07/24 11:03:03;;;;;;;7.05;1.60;;;;;;;23.60;100.00;99286.31;5094411;28;20020;-74
2023/07/24 11:05:29;;;;;;;2.83;1.00;;;;;;;23.66;100.00;99287.75;5095650;28;20119;-74
2023/07/24 11:07:55;;;;;;;6.05;1.50;;;;;;;23.54;100.00;99264.81;5092903;28;20024;-73
2023/07/24 11:10:22;;;;;;;3.78;1.08;;;;;;;23.58;100.00;99290.53;5092904;28;20024;-74
2023/07/24 11:12:48;;;;;;;2.88;1.10;;;;;;;23.34;100.00;99272.56;5092831;28;20024;-74
2023/07/24 11:15:14;;;;;;;3.88;1.10;;;;;;;23.39;100.00;99291.63;5075686;28;20024;-75
2023/07/24 11:17:41;;;;;;;6.43;1.20;;;;;;;23.20;100.00;99266.41;5075605;28;20111;-75
2023/07/24 11:20:13;;;;;;;3.88;1.00;;;;;;;23.53;100.00;99285.19;5075944;28;20036;-75